Time;durP1;ratioP1;P1;durP2;ratioP2;P2;SDS_P1;SDS_P2;PMS_P1;PMS_P2;Temp;Humidity;BMP_temperature;BMP_pressure;BME280_temperature;BME280_humidity;BME280_pressure;Samples;Min_cycle;Max_cycle;Signal;HPM_P1;HPM_P2
2021/12/21 00:02:23;;;;;;;;;23.25;20.75;;;;;7.65;55.87;102167.03;5004622;28;45418;-74
2021/12/21 00:04:48;;;;;;;;;27.00;19.50;;;;;7.54;55.75;102168.28;5032960;28;45764;-73
2021/12/21 00:07:14;;;;;;;;;19.00;19.00;;;;;7.58;55.79;102179.00;5037786;28;48100;-73
2021/12/21 00:09:39;;;;;;;;;29.75;19.50;;;;;7.55;55.94;102173.59;5016971;28;55033;-74
2021/12/21 00:12:05;;;;;;;;;23.00;19.25;;;;;7.54;56.02;102169.19;5018429;28;45428;-73
2021/12/21 00:14:45;;;;;;;;;24.75;18.00;;;;;7.52;56.14;102175.22;5033211;28;45586;-72
2021/12/21 00:17:18;;;;;;;;;23.50;17.75;;;;;7.40;56.03;102151.00;5031518;28;47843;-74
2021/12/21 00:20:04;;;;;;;;;23.75;17.75;;;;;7.37;56.18;102148.25;5002024;28;45424;-75
2021/12/21 00:25:04;;;;;;;;;28.25;20.25;;;;;7.39;56.44;102151.84;5037275;28;45352;-74
2021/12/21 00:27:29;;;;;;;;;28.50;19.50;;;;;7.37;56.30;102153.50;5037677;28;46561;-73
2021/12/21 00:29:55;;;;;;;;;27.25;20.75;;;;;7.37;56.37;102153.50;5032072;28;45296;-73
2021/12/21 00:32:20;;;;;;;;;27.25;19.00;;;;;7.35;56.33;102161.31;5033123;28;46142;-74
2021/12/21 00:34:46;;;;;;;;;24.75;18.25;;;;;7.33;56.52;102157.72;5030696;28;45564;-74
2021/12/21 00:37:11;;;;;;;;;27.50;17.00;;;;;7.29;56.50;102153.13;5035158;28;46708;-74
2021/12/21 00:39:36;;;;;;;;;27.75;19.00;;;;;7.19;56.58;102136.09;5033646;28;52283;-74
2021/12/21 00:42:02;;;;;;;;;27.75;19.50;;;;;7.18;56.39;102143.88;5028541;28;56625;-73
2021/12/21 00:44:28;;;;;;;;;25.50;19.00;;;;;7.20;56.79;102156.28;5031907;28;45332;-73
2021/12/21 00:46:53;;;;;;;;;26.00;18.75;;;;;7.13;56.44;102141.03;5017986;28;46267;-73
2021/12/21 00:49:20;;;;;;;;;29.00;19.00;;;;;7.21;56.78;102163.31;5031697;28;45453;-73
2021/12/21 00:51:46;;;;;;;;;20.00;18.50;;;;;7.17;56.72;102150.84;5035917;28;45351;-74
2021/12/21 00:54:12;;;;;;;;;19.00;17.50;;;;;7.07;56.84;102138.13;5001099;28;45298;-74
2021/12/21 00:56:38;;;;;;;;;33.25;20.25;;;;;7.16;56.70;102153.44;5036205;28;46821;-74
2021/12/21 00:59:04;;;;;;;;;25.25;15.00;;;;;7.16;56.90;102151.69;5037548;28;45492;-73
2021/12/21 01:01:29;;;;;;;;;23.00;19.50;;;;;7.15;56.63;102146.38;5037763;28;45322;-74
2021/12/21 01:03:57;;;;;;;;;24.50;18.25;;;;;7.12;56.71;102156.72;5036724;28;45280;-74
2021/12/21 01:06:38;;;;;;;;;22.25;14.00;;;;;7.08;57.19;102143.47;5033519;28;46047;-74
2021/12/21 01:09:40;;;;;;;;;22.50;17.75;;;;;7.04;57.04;102140.63;5029498;28;45328;-74
2021/12/21 01:12:04;;;;;;;;;21.75;21.75;;;;;6.95;57.05;102129.69;5028482;28;45351;-74
2021/12/21 01:15:44;;;;;;;;;22.50;15.00;;;;;7.01;57.09;102140.47;5033793;28;45487;-74
2021/12/21 01:17:37;;;;;;;;;17.50;15.00;;;;;6.96;57.02;102140.25;5019885;28;45951;-73
2021/12/21 01:20:23;;;;;;;;;23.75;17.75;;;;;6.94;57.06;102131.41;5037089;28;45227;-74
2021/12/21 01:25:46;;;;;;;;;24.00;18.25;;;;;6.76;57.13;102120.94;5033523;28;45301;-74
2021/12/21 01:28:19;;;;;;;;;24.00;15.25;;;;;6.74;57.30;102113.84;5018810;28;46083;-75
2021/12/21 01:33:46;;;;;;;;;15.50;14.00;;;;;6.72;57.30;102126.91;5034476;28;45416;-73
2021/12/21 01:44:22;;;;;;;;;24.75;18.00;;;;;6.70;57.68;102143.38;5031536;28;46136;-74
2021/12/21 01:49:36;;;;;;;;;21.00;16.00;;;;;6.64;57.78;102137.84;5020809;28;45772;-73
2021/12/21 01:52:03;;;;;;;;;19.50;14.75;;;;;6.53;57.57;102118.97;5036538;28;45479;-74
2021/12/21 01:54:28;;;;;;;;;17.75;15.00;;;;;6.61;57.73;102146.47;5033919;28;45484;-74
2021/12/21 01:56:54;;;;;;;;;19.00;14.50;;;;;6.59;57.66;102147.22;5036337;28;49456;-74
2021/12/21 01:59:19;;;;;;;;;18.25;14.75;;;;;6.54;57.68;102129.53;5035563;28;48317;-74
2021/12/21 02:01:45;;;;;;;;;17.25;13.25;;;;;6.54;57.68;102147.00;5036097;28;45222;-74
2021/12/21 02:04:15;;;;;;;;;19.00;18.00;;;;;6.43;57.99;102119.34;5030718;28;45544;-73
2021/12/21 02:06:41;;;;;;;;;26.50;19.75;;;;;6.43;57.80;102119.34;5016596;28;45302;-74
2021/12/21 02:09:06;;;;;;;;;21.00;17.00;;;;;6.28;57.97;102107.31;5031738;28;46133;-73
2021/12/21 02:11:31;;;;;;;;;12.75;12.75;;;;;6.43;58.16;102133.34;5032779;28;60235;-73
2021/12/21 02:13:57;;;;;;;;;19.25;14.75;;;;;6.42;58.11;102128.03;5028173;28;57501;-74
2021/12/21 02:16:29;;;;;;;;;19.00;13.50;;;;;6.37;58.15;102116.44;5036426;28;45475;-74
2021/12/21 02:19:14;;;;;;;;;13.75;11.50;;;;;6.37;58.38;102121.66;5035437;28;46748;-73
2021/12/21 02:21:49;;;;;;;;;20.75;14.25;;;;;6.37;58.37;102124.28;5036670;28;45301;-74
2021/12/21 02:24:19;;;;;;;;;17.00;12.50;;;;;6.32;58.23;102124.06;5032712;28;45507;-74
2021/12/21 02:27:06;;;;;;;;;16.00;13.75;;;;;6.31;58.31;102119.66;5016181;28;45531;-74
2021/12/21 02:29:34;;;;;;;;;21.25;16.50;;;;;6.29;58.40;102111.72;5028882;28;46520;-73
2021/12/21 02:32:00;;;;;;;;;23.00;18.50;;;;;6.25;58.43;102103.63;5035893;28;45473;-74
2021/12/21 02:34:25;;;;;;;;;20.50;11.25;;;;;6.24;58.51;102110.59;5035964;28;45268;-73
2021/12/21 02:36:52;;;;;;;;;13.75;13.00;;;;;6.23;58.46;102103.56;5031940;28;45546;-74
2021/12/21 02:39:17;;;;;;;;;17.00;9.75;;;;;6.20;58.55;102103.38;5031491;28;45759;-73
2021/12/21 02:41:43;;;;;;;;;14.25;12.50;;;;;6.12;58.63;102085.47;5028368;28;45567;-74
2021/12/21 02:44:09;;;;;;;;;15.25;13.25;;;;;6.11;58.77;102074.09;5037964;28;45516;-74
2021/12/21 02:46:35;;;;;;;;;13.75;13.75;;;;;6.20;58.43;102103.38;5035880;28;45649;-75
2021/12/21 02:49:00;;;;;;;;;17.25;13.00;;;;;6.18;58.94;102093.63;5017453;28;47332;-74
2021/12/21 02:51:26;;;;;;;;;18.25;13.75;;;;;6.08;58.59;102075.69;5033013;28;45288;-74
2021/12/21 02:53:51;;;;;;;;;22.25;15.25;;;;;6.13;58.76;102087.28;5013768;28;54569;-74
2021/12/21 02:56:17;;;;;;;;;29.75;16.00;;;;;6.15;58.61;102089.16;5035656;28;46318;-74
2021/12/21 02:58:42;;;;;;;;;13.00;13.00;;;;;6.12;58.90;102088.09;5029184;28;47387;-74
2021/12/21 03:01:09;;;;;;;;;14.75;12.50;;;;;6.06;58.97;102080.81;5035740;28;45331;-73
2021/12/21 03:03:34;;;;;;;;;20.50;16.75;;;;;6.08;58.99;102080.94;5017568;28;45532;-73
2021/12/21 03:06:01;;;;;;;;;16.75;14.25;;;;;5.97;59.02;102062.94;5017305;28;45496;-74
2021/12/21 03:08:39;;;;;;;;;17.75;13.75;;;;;6.07;59.04;102084.34;5017776;28;47734;-73
2021/12/21 03:11:25;;;;;;;;;22.25;16.25;;;;;6.05;59.10;102076.41;5034018;28;45375;-74
2021/12/21 03:14:05;;;;;;;;;20.50;15.25;;;;;5.92;59.08;102053.06;5033379;28;45562;-74
2021/12/21 03:16:35;;;;;;;;;31.00;21.25;;;;;6.00;59.08;102073.56;5026718;28;45581;-73
2021/12/21 03:19:01;;;;;;;;;19.00;15.75;;;;;5.99;59.15;102074.38;5000825;28;45641;-74
2021/12/21 03:21:27;;;;;;;;;17.75;12.25;;;;;6.01;59.26;102074.44;5017996;28;45350;-74
2021/12/21 03:23:52;;;;;;;;;17.00;15.75;;;;;5.88;59.34;102059.81;5030917;28;45413;-73
2021/12/21 03:26:18;;;;;;;;;20.25;13.50;;;;;5.90;59.24;102065.13;5017814;28;45515;-73
2021/12/21 03:28:43;;;;;;;;;19.00;16.75;;;;;5.91;59.24;102059.06;5033442;28;46480;-74
2021/12/21 03:31:10;;;;;;;;;22.75;13.50;;;;;5.98;59.34;102088.31;5027601;28;53083;-74
2021/12/21 03:33:36;;;;;;;;;16.75;16.50;;;;;5.88;59.33;102064.16;5034985;28;45468;-74
2021/12/21 03:36:02;;;;;;;;;23.50;16.25;;;;;5.98;59.27;102090.06;5035141;28;45630;-75
2021/12/21 03:38:28;;;;;;;;;19.00;14.50;;;;;5.98;59.19;102085.72;5034538;28;46702;-76
2021/12/21 03:41:00;;;;;;;;;21.25;13.25;;;;;5.97;59.30;102080.41;5008466;28;45388;-75
2021/12/21 03:43:28;;;;;;;;;16.50;12.75;;;;;5.95;59.45;102076.78;5036382;28;47480;-75
2021/12/21 03:46:01;;;;;;;;;23.00;13.25;;;;;5.92;59.45;102071.41;5016879;28;45538;-76
2021/12/21 03:48:28;;;;;;;;;18.25;14.00;;;;;5.89;59.34;102063.34;5017304;28;45684;-75
2021/12/21 03:50:53;;;;;;;;;16.50;13.00;;;;;5.94;59.57;102080.22;5025324;28;45517;-76
2021/12/21 03:53:19;;;;;;;;;16.75;12.50;;;;;5.93;59.42;102086.31;5034428;28;54194;-75
2021/12/21 03:55:44;;;;;;;;;17.00;13.75;;;;;5.92;59.31;102079.28;5017570;28;45222;-75
2021/12/21 03:58:10;;;;;;;;;12.00;10.25;;;;;5.81;59.32;102064.69;5026926;28;46502;-75
2021/12/21 04:00:35;;;;;;;;;25.00;14.25;;;;;5.89;59.59;102093.06;5035346;28;53838;-75
2021/12/21 04:03:01;;;;;;;;;13.00;10.25;;;;;5.89;59.55;102081.69;5036921;28;45321;-75
2021/12/21 04:05:26;;;;;;;;;14.75;10.00;;;;;5.87;59.63;102089.47;5038436;28;45685;-75
2021/12/21 04:07:52;;;;;;;;;17.50;12.50;;;;;5.86;59.61;102090.31;5036505;28;46648;-76
2021/12/21 04:10:17;;;;;;;;;14.00;12.75;;;;;5.83;59.61;102074.41;5014684;28;45373;-76
2021/12/21 04:12:43;;;;;;;;;22.25;12.25;;;;;5.86;59.62;102073.66;5037559;28;45475;-76
2021/12/21 04:15:09;;;;;;;;;15.75;12.50;;;;;5.86;59.48;102071.03;5034737;28;45296;-76
2021/12/21 04:17:34;;;;;;;;;18.50;14.25;;;;;5.84;59.74;102070.06;5037867;28;48171;-75
2021/12/21 04:20:00;;;;;;;;;19.25;13.00;;;;;5.84;59.80;102073.59;5020157;28;45448;-76
2021/12/21 04:22:25;;;;;;;;;18.50;12.75;;;;;5.85;59.69;102074.47;5037079;28;45790;-75
2021/12/21 04:24:51;;;;;;;;;17.25;10.25;;;;;5.84;59.63;102070.06;5017331;28;45590;-75
2021/12/21 04:27:16;;;;;;;;;12.75;10.50;;;;;5.78;59.84;102055.84;5037488;28;60880;-76
2021/12/21 04:29:42;;;;;;;;;17.25;11.50;;;;;5.82;59.80;102067.38;5037316;28;45522;-76
2021/12/21 04:32:07;;;;;;;;;16.00;12.00;;;;;5.70;59.69;102037.91;5037956;28;45514;-76
2021/12/21 04:34:34;;;;;;;;;11.75;10.50;;;;;5.82;59.82;102067.38;5019713;28;49645;-77
2021/12/21 04:36:59;;;;;;;;;21.50;13.25;;;;;5.71;59.58;102050.22;5019267;28;46547;-76
2021/12/21 04:39:43;;;;;;;;;11.50;10.00;;;;;5.79;59.67;102060.25;5037877;28;45214;-75
2021/12/21 04:42:08;;;;;;;;;13.25;10.75;;;;;5.78;59.78;102062.81;5003161;28;45255;-76
2021/12/21 04:44:34;;;;;;;;;12.75;10.25;;;;;5.74;60.04;102052.97;5040885;28;45446;-76
2021/12/21 04:47:00;;;;;;;;;14.50;10.00;;;;;5.79;59.94;102062.88;5003250;28;47435;-75
2021/12/21 04:49:25;;;;;;;;;12.00;12.00;;;;;5.81;59.72;102068.22;5029733;28;45258;-76
2021/12/21 04:51:50;;;;;;;;;13.50;8.00;;;;;5.82;59.81;102064.75;5019516;28;45570;-76
2021/12/21 04:54:16;;;;;;;;;20.00;11.00;;;;;5.75;60.03;102050.47;5034830;28;55832;-76
2021/12/21 04:56:41;;;;;;;;;16.00;12.00;;;;;5.81;59.64;102057.72;5019386;28;61036;-75
2021/12/21 04:59:07;;;;;;;;;16.00;9.00;;;;;5.78;59.77;102058.47;5034214;28;45493;-75
2021/12/21 05:01:32;;;;;;;;;14.75;11.75;;;;;5.78;59.84;102055.84;5028101;28;48816;-76
2021/12/21 05:03:58;;;;;;;;;12.75;9.00;;;;;5.81;59.98;102059.44;5037134;28;45570;-75
2021/12/21 05:06:23;;;;;;;;;12.00;11.00;;;;;5.78;59.85;102045.34;5033194;28;46560;-75
2021/12/21 05:08:53;;;;;;;;;17.50;10.50;;;;;5.71;59.87;102037.13;5029630;28;45266;-76
2021/12/21 05:11:20;;;;;;;;;10.00;10.00;;;;;5.75;59.90;102047.84;5029887;28;45611;-76
2021/12/21 05:13:45;;;;;;;;;19.25;9.00;;;;;5.77;60.12;102059.28;5036927;28;45487;-76
2021/12/21 05:16:11;;;;;;;;;20.75;11.50;;;;;5.76;59.89;102056.59;5037199;28;46167;-75
2021/12/21 05:18:36;;;;;;;;;13.00;9.75;;;;;5.74;59.75;102061.75;5032798;28;60040;-76
2021/12/21 05:21:01;;;;;;;;;17.50;11.50;;;;;5.70;60.12;102065.06;5037132;28;51747;-76
2021/12/21 05:23:27;;;;;;;;;15.25;10.00;;;;;5.71;59.94;102063.31;5031661;28;45374;-75
2021/12/21 05:25:52;;;;;;;;;12.50;10.00;;;;;5.70;59.94;102072.91;5033364;28;47270;-75
2021/12/21 05:28:18;;;;;;;;;13.75;10.75;;;;;5.68;59.99;102064.06;5037267;28;45470;-75
2021/12/21 05:30:43;;;;;;;;;12.00;12.00;;;;;5.59;59.94;102058.34;5034263;28;45288;-75
2021/12/21 05:33:09;;;;;;;;;16.00;12.25;;;;;5.55;60.09;102050.28;5036838;28;45462;-75
2021/12/21 05:35:34;;;;;;;;;13.50;9.00;;;;;5.55;60.26;102052.91;5022065;28;46087;-76
2021/12/21 05:38:03;;;;;;;;;13.75;11.75;;;;;5.53;59.90;102058.94;5037195;28;46065;-75
2021/12/21 05:40:42;;;;;;;;;15.00;9.00;;;;;5.58;60.20;102069.66;5027953;28;45353;-75
2021/12/21 05:43:08;;;;;;;;;16.50;13.75;;;;;5.55;60.23;102072.13;5022324;28;45398;-76
2021/12/21 05:45:35;;;;;;;;;13.75;9.75;;;;;5.53;60.01;102076.38;5016471;28;47568;-75
2021/12/21 05:48:01;;;;;;;;;11.00;9.00;;;;;5.51;60.32;102073.69;5018096;28;45429;-75
2021/12/21 05:50:26;;;;;;;;;16.00;12.25;;;;;5.50;60.44;102074.50;5018783;28;45427;-75
2021/12/21 05:52:51;;;;;;;;;14.75;11.50;;;;;5.47;60.10;102069.09;5036259;28;45562;-76
2021/12/21 05:55:18;;;;;;;;;13.00;12.00;;;;;5.45;60.24;102068.13;5032279;28;56285;-74
2021/12/21 05:57:43;;;;;;;;;10.75;10.75;;;;;5.44;60.18;102082.06;5024606;28;45236;-76
2021/12/21 06:00:12;;;;;;;;;16.25;11.25;;;;;5.42;60.30;102072.31;5029445;28;45344;-75
2021/12/21 06:02:37;;;;;;;;;18.50;9.25;;;;;5.37;60.34;102072.06;5018343;28;45601;-75
2021/12/21 06:05:04;;;;;;;;;10.25;9.25;;;;;5.26;60.55;102061.03;5035506;28;46024;-75
2021/12/21 06:07:30;;;;;;;;;15.00;11.50;;;;;5.32;60.51;102077.88;5030224;28;45514;-75
2021/12/21 06:09:55;;;;;;;;;18.00;13.25;;;;;5.30;60.46;102077.81;5031859;28;45509;-75
2021/12/21 06:12:42;;;;;;;;;12.75;10.75;;;;;5.22;60.33;102073.91;5018504;28;45728;-75
2021/12/21 06:15:22;;;;;;;;;16.75;12.00;;;;;5.16;60.64;102069.22;5010507;28;46168;-76
2021/12/21 06:25:53;;;;;;;;;14.25;9.50;;;;;5.23;60.91;102091.41;5035110;28;45743;-75
2021/12/21 06:28:19;;;;;;;;;13.00;12.25;;;;;5.10;60.98;102066.28;5033853;28;45504;-74
2021/12/21 06:30:44;;;;;;;;;11.50;10.00;;;;;5.16;60.89;102077.06;5031975;28;45488;-75
2021/12/21 06:33:10;;;;;;;;;16.00;9.75;;;;;5.16;61.11;102090.16;5028829;28;52757;-76
2021/12/21 06:35:36;;;;;;;;;13.25;10.50;;;;;5.16;61.18;102092.78;5016191;28;45842;-76
2021/12/21 06:38:02;;;;;;;;;16.00;12.00;;;;;5.16;61.15;102084.03;5033595;28;45486;-76
2021/12/21 06:40:27;;;;;;;;;19.25;12.75;;;;;5.16;61.05;102087.53;5032475;28;45575;-75
2021/12/21 06:42:54;;;;;;;;;13.50;11.75;;;;;5.15;61.04;102082.25;5011292;28;45665;-75
2021/12/21 06:53:36;;;;;;;;;29.50;13.25;;;;;5.10;61.14;102076.75;5031518;28;45506;-73
2021/12/21 06:56:05;;;;;;;;;17.50;16.50;;;;;5.09;61.39;102076.69;5029878;28;47136;-73
2021/12/21 06:58:30;;;;;;;;;25.00;18.50;;;;;5.06;61.33;102073.88;5028359;28;45424;-74
2021/12/21 07:00:56;;;;;;;;;26.75;15.50;;;;;4.95;61.17;102055.00;5029115;28;47320;-73
2021/12/21 07:03:22;;;;;;;;;23.25;14.75;;;;;5.07;61.00;102083.56;5032890;28;45475;-73
2021/12/21 07:05:48;;;;;;;;;24.00;16.50;;;;;5.05;61.43;102075.59;5016524;28;59969;-73
2021/12/21 07:08:16;;;;;;;;;17.25;13.50;;;;;5.04;61.67;102080.78;5034450;28;45503;-75
2021/12/21 07:10:51;;;;;;;;;21.50;16.50;;;;;4.94;61.56;102064.56;5010857;28;45614;-74
2021/12/21 07:18:44;;;;;;;;;19.25;14.00;;;;;5.05;61.51;102082.56;5028486;28;45449;-73
2021/12/21 07:21:10;;;;;;;;;15.50;15.00;;;;;5.05;61.49;102079.94;5027555;28;53935;-76
2021/12/21 07:23:35;;;;;;;;;20.50;13.50;;;;;4.89;61.31;102059.91;5030432;28;45305;-74
2021/12/21 07:26:01;;;;;;;;;16.50;15.50;;;;;5.04;61.26;102075.53;5027313;28;47551;-72
2021/12/21 07:28:26;;;;;;;;;20.25;14.75;;;;;5.02;61.44;102083.31;5021023;28;53671;-72
2021/12/21 07:30:52;;;;;;;;;18.25;11.00;;;;;5.02;61.43;102088.56;5032300;28;45622;-73
2021/12/21 07:33:18;;;;;;;;;15.75;12.00;;;;;5.03;61.51;102090.34;5013136;28;45697;-75
2021/12/21 07:35:43;;;;;;;;;25.50;14.00;;;;;5.02;61.66;102087.66;5033214;28;47310;-75
2021/12/21 07:38:10;;;;;;;;;15.25;12.50;;;;;4.99;61.69;102089.28;5035988;28;45422;-76
2021/12/21 07:40:35;;;;;;;;;24.25;14.50;;;;;5.00;61.69;102100.63;5015091;28;45642;-74
2021/12/21 07:43:01;;;;;;;;;15.25;14.00;;;;;5.00;61.67;102092.78;5037121;28;45340;-73
2021/12/21 07:45:26;;;;;;;;;16.00;9.00;;;;;5.00;61.40;102098.91;5033282;28;47531;-75
2021/12/21 07:47:52;;;;;;;;;15.00;10.75;;;;;4.98;61.43;102089.19;5143440;23;46012;-73
2021/12/21 07:50:18;;;;;;;;;16.50;11.75;;;;;4.97;61.57;102079.56;5031587;28;45603;-75
2021/12/21 07:52:44;;;;;;;;;18.25;16.50;;;;;4.79;61.87;102050.66;5015112;28;45909;-75
2021/12/21 07:55:10;;;;;;;;;22.25;13.00;;;;;4.96;61.42;102088.22;5029568;28;46090;-75
2021/12/21 07:57:35;;;;;;;;;21.00;14.00;;;;;4.96;61.69;102093.47;5027513;28;45569;-75
2021/12/21 08:00:03;;;;;;;;;25.00;15.50;;;;;4.97;61.69;102090.03;5028775;28;45537;-75
2021/12/21 08:02:29;;;;;;;;;19.75;14.00;;;;;4.98;61.59;102100.56;5013740;28;45611;-75
2021/12/21 08:04:55;;;;;;;;;23.75;15.75;;;;;5.00;61.60;102096.28;5020549;28;46188;-73
2021/12/21 08:07:24;;;;;;;;;16.00;13.00;;;;;4.98;61.39;102097.06;5032121;28;45471;-72
2021/12/21 08:09:53;;;;;;;;;23.50;16.75;;;;;5.00;61.65;102101.53;5036731;28;45609;-78
2021/12/21 08:12:19;;;;;;;;;17.75;12.50;;;;;5.00;61.83;102103.25;5036184;28;45574;-72
2021/12/21 08:14:49;;;;;;;;;18.75;15.00;;;;;4.90;61.81;102083.56;5013753;28;46918;-72
2021/12/21 08:17:15;;;;;;;;;15.50;12.50;;;;;5.01;61.82;102110.31;5015696;28;45604;-71
2021/12/21 08:19:40;;;;;;;;;13.25;13.25;;;;;4.99;61.76;102094.50;5033734;28;45400;-73
2021/12/21 08:22:05;;;;;;;;;22.50;15.50;;;;;5.02;61.85;102099.03;5038166;28;45435;-73
2021/12/21 08:24:31;;;;;;;;;18.00;12.00;;;;;4.95;61.88;102087.34;5026585;28;50181;-73
2021/12/21 08:26:58;;;;;;;;;21.25;15.00;;;;;5.06;61.89;102111.47;5029821;28;45530;-72
2021/12/21 08:29:24;;;;;;;;;17.00;16.50;;;;;5.04;61.78;102105.22;5009354;28;45591;-71
2021/12/21 08:31:50;;;;;;;;;19.50;13.00;;;;;5.08;61.78;102111.53;5031562;28;45478;-74
2021/12/21 08:34:15;;;;;;;;;19.25;15.00;;;;;4.99;61.71;102083.13;5030245;28;61193;-75
2021/12/21 08:36:41;;;;;;;;;15.50;14.50;;;;;5.11;61.85;102104.72;5031000;28;48949;-74
2021/12/21 08:39:07;;;;;;;;;14.00;13.25;;;;;5.15;61.93;102111.94;5032417;28;45681;-75
2021/12/21 08:41:38;;;;;;;;;21.75;12.50;;;;;5.15;61.79;102105.81;5014145;28;45670;-75
2021/12/21 08:44:04;;;;;;;;;19.00;15.75;;;;;5.16;62.07;102104.97;5030407;28;46918;-75
2021/12/21 08:46:29;;;;;;;;;21.25;15.50;;;;;5.20;61.82;102109.56;5022770;28;50155;-75
2021/12/21 08:48:54;;;;;;;;;18.00;14.50;;;;;5.20;61.61;102093.84;5032636;28;58100;-75
2021/12/21 08:51:20;;;;;;;;;19.00;16.75;;;;;5.24;61.64;102098.44;5006925;28;55398;-75
2021/12/21 08:53:45;;;;;;;;;23.25;14.50;;;;;5.20;61.83;102093.84;5037510;28;57623;-75
2021/12/21 08:56:11;;;;;;;;;21.50;16.75;;;;;5.26;61.71;102105.53;5032703;28;45388;-75
2021/12/21 08:58:36;;;;;;;;;19.25;16.00;;;;;5.28;61.60;102096.91;5029731;28;45528;-74
2021/12/21 09:01:02;;;;;;;;;21.25;17.25;;;;;5.31;61.35;102111.03;5029020;28;45443;-75
2021/12/21 09:03:28;;;;;;;;;20.00;17.75;;;;;5.26;61.62;102097.69;5031734;28;45646;-75
2021/12/21 09:05:53;;;;;;;;;22.75;17.50;;;;;5.34;61.41;102105.06;5031163;28;45377;-75
2021/12/21 09:08:19;;;;;;;;;20.75;17.50;;;;;5.36;61.39;102106.94;5036502;28;45459;-74
2021/12/21 09:10:44;;;;;;;;;27.75;16.25;;;;;5.37;61.64;102111.34;5029369;28;45507;-74
2021/12/21 09:13:10;;;;;;;;;21.00;16.00;;;;;5.30;61.81;102104.00;5026151;28;47254;-75
2021/12/21 09:15:35;;;;;;;;;23.50;20.25;;;;;5.25;61.48;102090.66;5024430;28;45706;-75
2021/12/21 09:18:01;;;;;;;;;20.25;16.25;;;;;5.43;61.34;102113.38;5036684;28;45606;-76
2021/12/21 09:20:27;;;;;;;;;30.75;18.75;;;;;5.41;61.39;102115.03;5033629;28;45643;-74
2021/12/21 09:22:53;;;;;;;;;22.50;18.00;;;;;5.48;61.51;102111.91;5021491;28;45799;-75
2021/12/21 09:25:18;;;;;;;;;24.50;17.75;;;;;5.37;61.51;102093.00;5035305;28;45373;-76
2021/12/21 09:27:44;;;;;;;;;24.00;19.00;;;;;5.47;61.35;102113.63;5035059;28;45452;-75
2021/12/21 09:30:11;;;;;;;;;18.25;17.00;;;;;5.43;61.26;102102.91;5000706;28;45710;-75
2021/12/21 09:32:37;;;;;;;;;17.25;12.75;;;;;5.55;60.99;102123.63;5017444;28;46293;-75
2021/12/21 09:35:03;;;;;;;;;17.50;12.50;;;;;5.52;60.84;102117.38;5035304;28;45317;-75
2021/12/21 09:37:28;;;;;;;;;16.50;15.75;;;;;5.58;61.07;102116.81;5025265;28;45419;-74
2021/12/21 09:39:54;;;;;;;;;19.75;14.25;;;;;5.42;60.97;102088.03;5029647;28;45881;-75
2021/12/21 09:42:28;;;;;;;;;27.00;14.25;;;;;5.63;61.01;102115.31;5027536;28;45773;-75
2021/12/21 09:44:53;;;;;;;;;22.25;16.50;;;;;5.66;60.99;102114.59;5007524;28;45924;-75
2021/12/21 09:47:19;;;;;;;;;16.75;14.75;;;;;5.69;61.06;102123.50;5032788;28;45309;-75
2021/12/21 09:49:45;;;;;;;;;15.00;15.00;;;;;5.71;60.67;102120.97;5008771;28;45337;-75
2021/12/21 09:52:12;;;;;;;;;23.75;17.00;;;;;5.69;60.58;102120.88;4988919;28;46736;-75
2021/12/21 09:54:39;;;;;;;;;23.00;17.00;;;;;5.73;60.61;102114.97;5029062;28;45570;-75
2021/12/21 09:57:04;;;;;;;;;18.25;16.25;;;;;5.71;60.20;102116.63;5016295;28;45667;-75
2021/12/21 09:59:30;;;;;;;;;24.00;17.00;;;;;5.73;60.66;102122.84;5029885;28;45605;-76
2021/12/21 10:01:57;;;;;;;;;27.00;18.00;;;;;5.70;60.45;102106.06;5028911;28;55986;-75
2021/12/21 10:04:23;;;;;;;;;26.00;21.00;;;;;5.80;60.33;102131.91;4998944;28;45492;-74
2021/12/21 10:06:50;;;;;;;;;25.25;20.50;;;;;5.82;60.28;102129.38;5034342;28;45547;-75
2021/12/21 10:09:20;;;;;;;;;24.00;18.75;;;;;5.81;60.12;102117.13;5015546;28;45486;-74
2021/12/21 10:11:48;;;;;;;;;31.00;18.25;;;;;5.83;60.51;102124.22;5030404;28;46779;-74
2021/12/21 10:14:15;;;;;;;;;25.00;21.00;;;;;5.85;60.33;102127.81;5026756;28;45399;-75
2021/12/21 10:16:40;;;;;;;;;44.00;25.50;;;;;5.86;60.27;102115.59;5034928;28;45451;-77
2021/12/21 10:19:06;;;;;;;;;32.75;20.25;;;;;5.88;60.13;102122.72;4985180;28;45314;-75
2021/12/21 10:21:31;;;;;;;;;28.00;24.25;;;;;5.92;60.17;102121.22;5015212;28;46607;-75
2021/12/21 10:23:57;;;;;;;;;37.75;28.75;;;;;5.87;60.19;102106.94;5029283;28;48661;-75
2021/12/21 10:26:29;;;;;;;;;32.25;26.25;;;;;5.88;60.18;102100.88;5033197;28;45470;-74
2021/12/21 10:29:05;;;;;;;;;24.75;21.00;;;;;5.99;59.99;102118.97;5029010;28;45509;-74
2021/12/21 10:31:39;;;;;;;;;30.75;20.75;;;;;6.00;60.22;102118.13;5034520;28;46789;-75
2021/12/21 10:34:12;;;;;;;;;22.00;19.00;;;;;6.08;59.96;102126.41;5031689;28;45476;-75
2021/12/21 10:36:42;;;;;;;;;26.75;22.75;;;;;6.11;59.96;102112.53;5028648;28;45521;-74
2021/12/21 10:39:07;;;;;;;;;25.25;18.25;;;;;6.12;59.80;102109.06;5015109;28;45684;-74
2021/12/21 10:41:41;;;;;;;;;22.00;18.00;;;;;6.14;59.82;102102.19;5031075;28;46728;-75
2021/12/21 10:44:15;;;;;;;;;26.25;16.50;;;;;6.17;59.92;102112.81;5013407;28;45525;-74
2021/12/21 10:46:53;;;;;;;;;30.00;22.25;;;;;6.09;59.55;102085.34;5028925;28;45443;-74
2021/12/21 10:49:21;;;;;;;;;30.50;20.25;;;;;6.19;59.79;102098.97;5036444;28;45560;-74
2021/12/21 10:52:04;;;;;;;;;24.50;18.50;;;;;6.26;59.76;102111.56;5033948;28;45975;-75
2021/12/21 10:54:38;;;;;;;;;22.00;19.25;;;;;6.30;59.46;102113.50;5032225;28;45607;-75
2021/12/21 10:57:10;;;;;;;;;26.75;20.75;;;;;6.34;59.58;102108.38;5025310;28;45510;-75
2021/12/21 10:59:37;;;;;;;;;22.25;19.50;;;;;6.36;59.68;102115.53;5030461;28;45308;-75
2021/12/21 11:02:18;;;;;;;;;26.25;20.25;;;;;6.29;59.47;102095.97;4998354;28;46519;-75
2021/12/21 11:04:47;;;;;;;;;22.25;19.00;;;;;6.42;59.60;102104.44;5032552;28;45424;-74
2021/12/21 11:10:11;;;;;;;;;24.00;17.50;;;;;6.43;59.49;102096.63;5038939;28;45357;-75
2021/12/21 11:13:10;;;;;;;;;34.00;21.50;;;;;6.57;59.40;102108.69;5032207;28;47694;-74
2021/12/21 11:15:37;;;;;;;;;32.50;22.25;;;;;6.60;59.62;102107.03;5014168;28;45560;-75
2021/12/21 11:18:05;;;;;;;;;22.00;18.25;;;;;6.60;59.37;102110.53;5038092;28;45694;-75
2021/12/21 11:20:30;;;;;;;;;26.50;21.75;;;;;6.61;59.02;102095.72;5034988;28;46398;-75
2021/12/21 11:22:55;;;;;;;;;31.00;24.25;;;;;6.66;59.21;102100.38;5031571;28;49996;-74
2021/12/21 11:25:21;;;;;;;;;29.00;22.25;;;;;6.60;59.31;102081.69;5035690;28;46730;-75
2021/12/21 11:27:47;;;;;;;;;24.75;19.50;;;;;6.75;59.13;102099.88;5034948;28;45518;-74
2021/12/21 11:30:17;;;;;;;;;22.75;20.50;;;;;6.78;59.12;102092.16;5036712;28;45638;-74
2021/12/21 11:32:45;;;;;;;;;31.75;22.25;;;;;6.79;58.89;102097.47;5037579;28;45630;-75
2021/12/21 11:37:40;;;;;;;;;24.75;20.25;;;;;6.73;58.70;102070.03;5033395;28;45384;-74
2021/12/21 11:40:07;;;;;;;;;21.75;18.50;;;;;6.81;58.79;102074.81;5036669;28;45556;-74
2021/12/21 11:42:40;;;;;;;;;22.00;18.50;;;;;6.83;58.60;102088.03;5036945;28;46946;-74
2021/12/21 11:45:07;;;;;;;;;30.25;20.25;;;;;6.89;58.48;102084.78;5018681;28;45524;-75
2021/12/21 11:47:40;;;;;;;;;23.25;17.75;;;;;6.87;58.74;102075.91;5037758;28;45411;-74
2021/12/21 11:50:08;;;;;;;;;24.75;20.50;;;;;6.81;58.57;102053.81;5005000;28;45651;-75
2021/12/21 11:52:50;;;;;;;;;22.75;19.75;;;;;6.85;58.60;102065.34;5036552;28;45812;-74
2021/12/21 11:55:17;;;;;;;;;24.25;19.00;;;;;6.94;58.48;102070.13;5029189;28;45304;-74
2021/12/21 11:57:50;;;;;;;;;28.75;22.75;;;;;6.95;58.62;102074.56;5034826;28;45517;-74
2021/12/21 12:00:16;;;;;;;;;30.25;20.75;;;;;6.99;58.47;102076.50;5035538;28;45294;-74
2021/12/21 12:02:43;;;;;;;;;25.75;17.75;;;;;6.90;58.39;102060.31;5033618;28;46090;-74
2021/12/21 12:05:18;;;;;;;;;22.75;17.50;;;;;7.00;58.32;102065.16;5034002;28;45485;-73
2021/12/21 12:07:44;;;;;;;;;23.75;21.50;;;;;7.01;58.29;102059.06;5030570;28;45579;-74